createdAt,value
2018-12-21T00:00:21.808Z,73.20
2018-12-21T00:02:49.367Z,73.90
2018-12-21T00:05:16.882Z,73.00
2018-12-21T00:07:44.435Z,73.20
2018-12-21T00:10:11.873Z,73.30
2018-12-21T00:12:39.358Z,74.00
2018-12-21T00:15:07.336Z,73.30
2018-12-21T00:17:34.997Z,73.10
2018-12-21T00:20:02.932Z,73.20
2018-12-21T00:22:30.395Z,73.20
2018-12-21T00:24:57.882Z,74.00
2018-12-21T00:27:25.356Z,73.20
2018-12-21T00:29:52.831Z,73.20
2018-12-21T00:32:26.050Z,73.20
2018-12-21T00:34:59.293Z,73.20
2018-12-21T00:37:32.477Z,73.10
2018-12-21T00:40:05.742Z,73.10
2018-12-21T00:42:36.793Z,72.90
2018-12-21T00:45:08.631Z,73.00
2018-12-21T00:47:36.086Z,73.00
2018-12-21T00:50:06.081Z,73.00
2018-12-21T00:52:33.573Z,73.10
2018-12-21T00:55:01.042Z,73.00
2018-12-21T00:57:28.604Z,72.90
2018-12-21T00:59:56.065Z,72.80
2018-12-21T01:02:23.663Z,72.80
2018-12-21T01:04:51.138Z,72.70
2018-12-21T01:07:18.609Z,72.80
2018-12-21T01:09:46.094Z,72.50
2018-12-21T01:12:13.819Z,72.60
2018-12-21T01:14:41.491Z,72.50
2018-12-21T01:17:09.028Z,72.40
2018-12-21T01:19:36.463Z,72.20
2018-12-21T01:22:03.991Z,72.30
2018-12-21T01:24:31.441Z,72.20
2018-12-21T01:26:58.945Z,72.30
2018-12-21T01:29:26.427Z,72.10
2018-12-21T01:31:53.881Z,72.10
2018-12-21T01:34:21.327Z,72.10
2018-12-21T01:36:48.934Z,72.10
2018-12-21T01:39:16.479Z,72.00
2018-12-21T01:41:43.925Z,72.00
2018-12-21T01:44:12.406Z,72.00
2018-12-21T01:46:40.059Z,72.00
2018-12-21T01:49:07.533Z,72.00
2018-12-21T01:51:35.001Z,71.90
2018-12-21T01:54:02.444Z,71.70
2018-12-21T01:56:29.899Z,71.60
2018-12-21T01:58:57.340Z,71.60
2018-12-21T02:01:24.804Z,71.70
2018-12-21T02:03:52.254Z,71.60
2018-12-21T02:06:19.748Z,71.60
2018-12-21T02:08:47.193Z,71.40
2018-12-21T02:11:14.657Z,71.20
2018-12-21T02:13:42.177Z,71.90
2018-12-21T02:16:09.694Z,71.10
2018-12-21T02:18:37.160Z,71.10
2018-12-21T02:21:04.694Z,71.10
2018-12-21T02:23:32.172Z,71.80
2018-12-21T02:25:59.643Z,71.30
2018-12-21T02:28:27.096Z,71.40
2018-12-21T02:30:54.518Z,71.30
2018-12-21T02:33:22.045Z,71.50
2018-12-21T02:35:49.509Z,71.50
2018-12-21T02:38:16.985Z,71.20
2018-12-21T02:40:44.434Z,71.30
2018-12-21T02:43:11.897Z,71.20
2018-12-21T02:45:39.368Z,71.20
2018-12-21T02:48:06.864Z,71.10
2018-12-21T02:50:34.327Z,71.20
2018-12-21T02:53:01.808Z,71.10
2018-12-21T02:55:29.328Z,70.90
2018-12-21T02:57:56.813Z,71.00
2018-12-21T03:00:24.253Z,71.00
2018-12-21T03:02:51.753Z,70.90
2018-12-21T03:05:19.217Z,70.80
2018-12-21T03:07:46.656Z,71.00
2018-12-21T03:10:14.113Z,71.10
2018-12-21T03:12:41.734Z,70.90
2018-12-21T03:15:09.197Z,70.90
2018-12-21T03:17:36.664Z,70.80
2018-12-21T03:20:04.373Z,70.90
2018-12-21T03:22:31.898Z,70.90
2018-12-21T03:24:59.431Z,70.60
2018-12-21T03:27:26.919Z,70.60
2018-12-21T03:29:54.501Z,70.50
2018-12-21T03:32:21.974Z,70.60
2018-12-21T03:34:49.526Z,70.40
2018-12-21T03:37:17.088Z,70.60
2018-12-21T03:39:44.520Z,70.70
2018-12-21T03:42:11.986Z,70.70
2018-12-21T03:44:39.465Z,70.80
2018-12-21T03:47:06.933Z,70.80
2018-12-21T03:49:34.483Z,70.70
2018-12-21T03:52:01.935Z,70.80
2018-12-21T03:54:29.392Z,70.70
2018-12-21T03:56:56.877Z,70.80
2018-12-21T03:59:24.407Z,70.80
2018-12-21T04:01:51.870Z,70.80
2018-12-21T04:04:19.324Z,71.00
2018-12-21T04:06:46.814Z,71.20
2018-12-21T04:09:14.252Z,71.20
2018-12-21T04:11:41.872Z,71.10
2018-12-21T04:14:09.334Z,71.20
2018-12-21T04:16:36.823Z,71.20
2018-12-21T04:19:04.274Z,71.10
2018-12-21T04:21:31.748Z,71.20
2018-12-21T04:23:59.189Z,71.30
2018-12-21T04:26:26.649Z,71.20
2018-12-21T04:28:54.114Z,71.00
2018-12-21T04:31:21.619Z,71.10
2018-12-21T04:33:49.086Z,71.10
2018-12-21T04:36:16.519Z,71.10
2018-12-21T04:38:43.977Z,71.20
2018-12-21T04:41:11.446Z,71.20
2018-12-21T04:43:38.949Z,71.20
2018-12-21T04:46:06.396Z,71.10
2018-12-21T04:48:33.870Z,71.30
2018-12-21T04:51:01.325Z,71.20
2018-12-21T04:53:28.789Z,71.30
2018-12-21T04:55:56.225Z,71.30
2018-12-21T04:58:23.692Z,71.30
2018-12-21T05:00:51.174Z,71.10
2018-12-21T05:03:18.678Z,71.10
2018-12-21T05:05:46.116Z,71.10
2018-12-21T05:08:13.636Z,71.30
2018-12-21T05:10:41.191Z,71.20
2018-12-21T05:13:08.649Z,71.30
2018-12-21T05:15:36.108Z,71.20
2018-12-21T05:18:04.075Z,71.20
2018-12-21T05:20:31.528Z,71.10
2018-12-21T05:22:58.976Z,70.90
2018-12-21T05:25:26.457Z,71.10
2018-12-21T05:27:53.913Z,71.80
2018-12-21T05:30:21.363Z,71.00
2018-12-21T05:32:48.840Z,71.00
2018-12-21T05:35:16.343Z,70.80
2018-12-21T05:37:43.808Z,70.60
2018-12-21T05:40:11.335Z,70.60
2018-12-21T05:42:38.849Z,70.50
2018-12-21T05:45:06.517Z,70.30
2018-12-21T05:47:33.964Z,70.40
2018-12-21T05:50:01.391Z,70.20
2018-12-21T05:52:28.850Z,69.80
2018-12-21T05:54:56.320Z,69.90
2018-12-21T05:57:23.766Z,70.00
2018-12-21T05:59:51.205Z,69.80
2018-12-21T06:02:18.660Z,69.80
2018-12-21T06:04:46.144Z,69.60
2018-12-21T06:07:13.595Z,69.80
2018-12-21T06:09:41.071Z,69.70
2018-12-21T06:12:08.637Z,70.50
2018-12-21T06:14:36.095Z,69.60
2018-12-21T06:17:03.552Z,69.70
2018-12-21T06:19:31.014Z,69.50
2018-12-21T06:21:58.516Z,69.30
2018-12-21T06:24:25.961Z,69.20
2018-12-21T06:26:53.413Z,69.20
2018-12-21T06:29:20.855Z,69.20
2018-12-21T06:31:48.353Z,70.00
2018-12-21T06:34:15.798Z,69.30
2018-12-21T06:36:43.277Z,69.50
2018-12-21T06:39:10.764Z,69.80
2018-12-21T06:41:38.208Z,70.20
2018-12-21T06:44:05.661Z,70.40
2018-12-21T06:46:33.098Z,70.60
2018-12-21T06:49:00.613Z,70.80
2018-12-21T06:51:28.057Z,70.80
2018-12-21T06:53:55.530Z,71.50
2018-12-21T06:56:22.976Z,72.50
2018-12-21T06:58:50.496Z,72.90
2018-12-21T07:01:17.931Z,73.50
2018-12-21T07:03:45.395Z,74.70
2018-12-21T07:06:12.835Z,73.50
2018-12-21T07:08:40.287Z,73.70
2018-12-21T07:11:07.726Z,73.80
2018-12-21T07:13:35.176Z,73.90
2018-12-21T07:16:02.664Z,74.00
2018-12-21T07:18:30.169Z,74.40
2018-12-21T07:20:57.609Z,75.00
2018-12-21T07:23:27.314Z,75.40
2018-12-21T07:25:54.910Z,75.90
2018-12-21T07:28:22.768Z,76.10
2018-12-21T07:30:50.211Z,76.30
2018-12-21T07:33:17.697Z,76.20
2018-12-21T07:35:45.136Z,76.70
2018-12-21T07:38:12.589Z,76.90
2018-12-21T07:40:40.072Z,77.10
2018-12-21T07:43:07.538Z,77.40
2018-12-21T07:45:34.967Z,77.50
2018-12-21T07:48:02.448Z,77.80
2018-12-21T07:50:29.888Z,78.10
2018-12-21T07:52:57.438Z,78.20
2018-12-21T07:55:24.914Z,78.40
2018-12-21T07:57:52.399Z,78.40
2018-12-21T08:00:20.056Z,78.80
2018-12-21T08:02:47.490Z,79.10
2018-12-21T08:05:15.021Z,79.40
2018-12-21T08:07:42.468Z,79.30
2018-12-21T08:10:12.262Z,79.30
2018-12-21T08:12:39.719Z,79.60
2018-12-21T08:15:07.312Z,79.70
2018-12-21T08:17:34.828Z,79.10
2018-12-21T08:20:02.345Z,79.20
2018-12-21T08:22:29.813Z,79.50
2018-12-21T08:24:57.284Z,79.20
2018-12-21T08:27:24.737Z,79.10
2018-12-21T08:29:52.173Z,79.20
2018-12-21T08:32:19.749Z,79.40
2018-12-21T08:34:47.283Z,80.00
2018-12-21T08:37:14.735Z,79.30
2018-12-21T08:39:42.178Z,79.30
2018-12-21T08:42:09.657Z,79.20
2018-12-21T08:44:37.095Z,79.50
2018-12-21T08:47:04.546Z,79.60
2018-12-21T08:49:32.402Z,79.90
2018-12-21T08:52:00.115Z,80.00
2018-12-21T08:54:27.555Z,80.00
2018-12-21T08:56:55.024Z,80.30
2018-12-21T08:59:22.501Z,80.50
2018-12-21T09:01:49.957Z,80.30
2018-12-21T09:04:17.420Z,80.70
2018-12-21T09:06:44.888Z,80.60
2018-12-21T09:09:12.339Z,80.50
2018-12-21T09:11:39.889Z,80.70
2018-12-21T09:14:07.639Z,81.30
2018-12-21T09:16:35.132Z,81.90
2018-12-21T09:19:02.575Z,81.00
2018-12-21T09:21:30.008Z,80.80
2018-12-21T09:24:01.156Z,80.60
2018-12-21T09:26:26.911Z,81.50
2018-12-21T09:28:54.367Z,80.90
2018-12-21T09:31:21.882Z,80.50
2018-12-21T09:33:49.365Z,80.60
2018-12-21T09:36:16.792Z,80.60
2018-12-21T09:38:44.321Z,80.50
2018-12-21T09:41:11.897Z,80.40
2018-12-21T09:43:39.344Z,80.30
2018-12-21T09:46:06.880Z,80.10
2018-12-21T09:48:34.388Z,80.00
2018-12-21T09:51:01.906Z,81.00
2018-12-21T09:53:29.365Z,80.20
2018-12-21T09:55:56.798Z,80.40
2018-12-21T09:58:24.253Z,80.40
2018-12-21T10:00:51.732Z,80.40
2018-12-21T10:03:19.238Z,80.60
2018-12-21T10:05:46.704Z,80.80
2018-12-21T10:08:14.152Z,81.00
2018-12-21T10:10:41.677Z,81.00
2018-12-21T10:13:09.121Z,80.90
2018-12-21T10:15:36.577Z,81.00
2018-12-21T10:18:04.058Z,81.10
2018-12-21T10:20:31.525Z,81.10
2018-12-21T10:22:59.057Z,81.20
2018-12-21T10:25:26.511Z,81.50
2018-12-21T10:27:53.960Z,81.50
2018-12-21T10:30:21.409Z,81.40
2018-12-21T10:32:48.853Z,81.60
2018-12-21T10:35:16.316Z,81.70
2018-12-21T10:37:43.760Z,82.40
2018-12-21T10:40:11.263Z,82.50
2018-12-21T10:42:38.733Z,82.40
2018-12-21T10:45:06.313Z,82.40
2018-12-21T10:47:33.896Z,82.50
2018-12-21T10:50:01.345Z,82.70
2018-12-21T10:52:28.808Z,82.30
2018-12-21T10:54:56.271Z,82.40
2018-12-21T10:57:23.752Z,82.50
2018-12-21T10:59:51.179Z,82.60
2018-12-21T11:02:18.630Z,82.40
2018-12-21T11:04:46.092Z,81.20
2018-12-21T11:07:13.559Z,81.40
2018-12-21T11:09:41.872Z,81.80
2018-12-21T11:12:09.321Z,82.50
2018-12-21T11:14:36.793Z,83.50
2018-12-21T11:17:04.227Z,82.50
2018-12-21T11:19:31.713Z,81.90
2018-12-21T11:21:59.196Z,83.10
2018-12-21T11:24:35.184Z,82.60
2018-12-21T11:26:56.106Z,82.70
2018-12-21T11:29:23.571Z,82.80
2018-12-21T11:31:51.217Z,82.60
2018-12-21T11:34:18.709Z,82.70
2018-12-21T11:36:46.164Z,82.50
2018-12-21T11:39:13.653Z,82.70
2018-12-21T11:41:41.102Z,83.10
2018-12-21T11:44:08.571Z,83.70
2018-12-21T11:46:36.032Z,83.10
2018-12-21T11:49:03.535Z,83.20
2018-12-21T11:51:30.959Z,83.40
2018-12-21T11:53:58.463Z,83.40
2018-12-21T11:56:25.897Z,83.70
2018-12-21T11:58:53.407Z,83.70
2018-12-21T12:01:20.852Z,84.00
2018-12-21T12:03:48.306Z,84.10
2018-12-21T12:06:15.759Z,84.60
2018-12-21T12:08:43.214Z,84.30
2018-12-21T12:11:10.701Z,84.30
2018-12-21T12:13:38.172Z,84.20
2018-12-21T12:16:05.649Z,84.30
2018-12-21T12:18:33.111Z,84.30
2018-12-21T12:21:00.575Z,84.20
2018-12-21T12:23:28.100Z,84.30
2018-12-21T12:25:55.563Z,84.50
2018-12-21T12:28:23.021Z,84.60
2018-12-21T12:30:50.534Z,84.80
2018-12-21T12:33:17.985Z,85.00
2018-12-21T12:35:45.456Z,84.90
2018-12-21T12:38:12.913Z,84.90
2018-12-21T12:40:40.401Z,85.00
2018-12-21T12:43:07.836Z,85.00
2018-12-21T12:45:35.341Z,85.00
2018-12-21T12:48:02.796Z,84.90
2018-12-21T12:50:30.270Z,84.90
2018-12-21T12:52:57.751Z,85.00
2018-12-21T12:55:25.213Z,84.90
2018-12-21T12:57:52.751Z,84.80
2018-12-21T13:00:20.293Z,84.80
2018-12-21T13:02:47.861Z,85.00
2018-12-21T13:05:15.320Z,85.00
2018-12-21T13:07:42.779Z,84.90
2018-12-21T13:10:10.323Z,85.00
2018-12-21T13:12:37.774Z,85.10
2018-12-21T13:15:07.298Z,85.30
2018-12-21T13:17:34.826Z,85.30
2018-12-21T13:20:02.663Z,85.30
2018-12-21T13:22:30.144Z,85.40
2018-12-21T13:24:57.590Z,85.40
2018-12-21T13:27:25.049Z,85.50
2018-12-21T13:29:52.508Z,85.50
2018-12-21T13:32:19.997Z,85.60
2018-12-21T13:34:47.454Z,85.80
2018-12-21T13:37:14.980Z,85.80
2018-12-21T13:39:42.467Z,85.90
2018-12-21T13:42:09.925Z,85.90
2018-12-21T13:44:37.394Z,86.10
2018-12-21T13:47:04.874Z,86.30
2018-12-21T13:49:32.331Z,86.20
2018-12-21T13:51:59.816Z,86.30
2018-12-21T13:54:27.289Z,86.30
2018-12-21T13:56:54.754Z,86.50
2018-12-21T13:59:22.227Z,86.70
2018-12-21T14:01:49.669Z,87.00
2018-12-21T14:04:17.178Z,86.80
2018-12-21T14:06:44.642Z,87.00
2018-12-21T14:09:12.119Z,87.10
2018-12-21T14:11:39.585Z,87.10
2018-12-21T14:14:07.115Z,87.30
2018-12-21T14:16:34.659Z,87.10
2018-12-21T14:19:02.240Z,87.10
2018-12-21T14:21:29.703Z,87.20
2018-12-21T14:23:57.197Z,88.10
2018-12-21T14:26:24.713Z,87.30
2018-12-21T14:28:52.195Z,87.40
2018-12-21T14:31:19.655Z,88.00
2018-12-21T14:33:47.133Z,87.70
2018-12-21T14:36:14.589Z,87.80
2018-12-21T14:38:42.165Z,87.90
2018-12-21T14:41:09.607Z,87.90
2018-12-21T14:43:37.103Z,88.00
2018-12-21T14:46:04.587Z,88.20
2018-12-21T14:48:32.024Z,88.30
2018-12-21T14:50:59.514Z,88.30
2018-12-21T14:53:26.969Z,88.10
2018-12-21T14:55:54.448Z,88.00
2018-12-21T14:58:21.918Z,87.90
2018-12-21T15:00:49.406Z,87.90
2018-12-21T15:04:14.803Z,87.70
2018-12-21T15:06:42.269Z,87.50
2018-12-21T15:09:09.786Z,87.50
2018-12-21T15:11:37.273Z,87.50
2018-12-21T15:14:04.799Z,87.40
2018-12-21T15:16:32.272Z,87.50
2018-12-21T15:18:59.732Z,87.50
2018-12-21T15:21:27.292Z,87.60
2018-12-21T15:23:54.753Z,87.70
2018-12-21T15:26:22.301Z,87.70
2018-12-21T15:28:49.764Z,87.60
2018-12-21T15:31:17.302Z,87.50
2018-12-21T15:33:44.765Z,87.40
2018-12-21T15:36:12.233Z,87.30
2018-12-21T15:38:39.694Z,87.40
2018-12-21T15:41:07.167Z,87.30
2018-12-21T15:43:34.757Z,87.40
2018-12-21T15:46:02.364Z,87.40
2018-12-21T15:48:29.839Z,87.40
2018-12-21T15:50:57.297Z,87.50
2018-12-21T15:53:24.754Z,87.60
2018-12-21T15:55:54.858Z,87.50
2018-12-21T15:58:21.666Z,87.50
2018-12-21T16:00:49.195Z,87.40
2018-12-21T16:03:16.673Z,87.30
2018-12-21T16:05:44.131Z,87.20
2018-12-21T16:08:11.597Z,86.80
2018-12-21T16:10:39.061Z,86.80
2018-12-21T16:13:06.543Z,86.70
2018-12-21T16:15:33.995Z,86.50
2018-12-21T16:18:01.479Z,86.30
2018-12-21T16:20:28.938Z,86.20
2018-12-21T16:22:56.493Z,86.20
2018-12-21T16:25:23.999Z,86.30
2018-12-21T16:27:51.515Z,86.00
2018-12-21T16:30:19.279Z,85.80
2018-12-21T16:32:46.746Z,85.70
2018-12-21T16:35:14.204Z,85.60
2018-12-21T16:37:41.661Z,85.50
2018-12-21T16:40:09.248Z,85.30
2018-12-21T16:42:36.804Z,85.20
2018-12-21T16:45:06.930Z,85.10
2018-12-21T16:47:34.404Z,85.00
2018-12-21T16:50:01.934Z,84.70
2018-12-21T16:52:29.431Z,84.60
2018-12-21T16:54:56.891Z,84.50
2018-12-21T16:57:24.385Z,84.40
2018-12-21T16:59:51.837Z,84.20
2018-12-21T17:02:19.299Z,84.40
2018-12-21T17:04:46.762Z,84.10
2018-12-21T17:07:14.258Z,83.80
2018-12-21T17:09:41.730Z,83.70
2018-12-21T17:12:09.203Z,83.50
2018-12-21T17:14:36.692Z,83.50
2018-12-21T17:17:05.117Z,83.60
2018-12-21T17:19:32.751Z,83.50
2018-12-21T17:22:00.234Z,83.50
2018-12-21T17:24:27.696Z,83.30
2018-12-21T17:26:55.179Z,83.20
2018-12-21T17:29:22.735Z,83.10
2018-12-21T17:31:50.223Z,83.60
2018-12-21T17:34:17.681Z,83.00
2018-12-21T17:36:45.188Z,82.80
2018-12-21T17:39:12.683Z,83.00
2018-12-21T17:41:40.158Z,82.70
2018-12-21T17:44:07.622Z,82.70
2018-12-21T17:46:35.125Z,82.60
2018-12-21T17:49:02.588Z,82.50
2018-12-21T17:51:30.077Z,82.40
2018-12-21T17:53:57.562Z,82.40
2018-12-21T17:56:29.858Z,82.40
2018-12-21T17:58:54.488Z,82.30
2018-12-21T18:01:22.128Z,82.30
2018-12-21T18:03:51.575Z,82.20
2018-12-21T18:06:19.102Z,82.20
2018-12-21T18:08:46.566Z,82.00
2018-12-21T18:11:14.018Z,81.90
2018-12-21T18:13:41.505Z,81.90
2018-12-21T18:16:08.966Z,81.90
2018-12-21T18:18:36.472Z,81.70
2018-12-21T18:21:03.956Z,81.80
2018-12-21T18:23:32.516Z,81.70
2018-12-21T18:25:59.972Z,81.60
2018-12-21T18:28:27.486Z,81.70
2018-12-21T18:30:57.130Z,81.60
2018-12-21T18:33:24.679Z,81.50
2018-12-21T18:35:52.131Z,81.50
2018-12-21T18:38:19.576Z,81.40
2018-12-21T18:40:47.121Z,81.40
2018-12-21T18:43:14.586Z,81.40
2018-12-21T18:45:42.086Z,81.30
2018-12-21T18:48:09.527Z,81.30
2018-12-21T18:50:37.005Z,81.30
2018-12-21T18:53:04.467Z,81.20
2018-12-21T18:55:31.988Z,81.10
2018-12-21T18:57:59.451Z,81.00
2018-12-21T19:00:26.931Z,80.80
2018-12-21T19:02:54.477Z,80.80
2018-12-21T19:05:21.990Z,80.70
2018-12-21T19:07:49.467Z,80.70
2018-12-21T19:10:16.914Z,80.50
2018-12-21T19:12:44.394Z,80.60
2018-12-21T19:15:11.968Z,80.40
2018-12-21T19:17:39.532Z,80.60
2018-12-21T19:20:08.906Z,81.30
2018-12-21T19:22:36.706Z,80.50
2018-12-21T19:25:05.856Z,80.60
2018-12-21T19:27:33.336Z,80.60
2018-12-21T19:30:00.808Z,80.60
2018-12-21T19:32:28.290Z,81.60
2018-12-21T19:34:55.860Z,80.80
2018-12-21T19:37:23.503Z,80.60
2018-12-21T19:39:50.947Z,80.70
2018-12-21T19:42:18.518Z,80.70
2018-12-21T19:44:46.006Z,80.70
2018-12-21T19:47:15.152Z,80.70
2018-12-21T19:49:42.995Z,80.80
2018-12-21T19:52:10.525Z,80.80
2018-12-21T19:54:37.991Z,80.90
2018-12-21T19:57:05.465Z,80.70
2018-12-21T19:59:32.962Z,80.70
2018-12-21T20:02:00.407Z,80.80
2018-12-21T20:04:27.893Z,80.90
2018-12-21T20:06:55.542Z,81.00
2018-12-21T20:09:23.113Z,80.90
2018-12-21T20:11:50.616Z,80.80
2018-12-21T20:14:18.171Z,80.90
2018-12-21T20:16:45.659Z,81.00
2018-12-21T20:19:13.112Z,80.80
2018-12-21T20:21:40.596Z,80.90
2018-12-21T20:26:42.501Z,80.90
2018-12-21T20:29:10.005Z,80.90
2018-12-21T20:31:37.556Z,81.00
2018-12-21T20:34:05.144Z,81.00
2018-12-21T20:36:32.603Z,80.90
2018-12-21T20:39:00.152Z,81.10
2018-12-21T20:41:27.695Z,81.20
2018-12-21T20:43:55.452Z,81.20
2018-12-21T20:46:22.962Z,81.20
2018-12-21T20:48:50.435Z,81.20
2018-12-21T20:51:17.902Z,81.20
2018-12-21T20:53:45.379Z,81.20
2018-12-21T20:56:12.924Z,81.20
2018-12-21T20:58:40.457Z,81.20
2018-12-21T21:01:08.049Z,81.20
2018-12-21T21:03:36.006Z,81.20
2018-12-21T21:06:03.536Z,81.30
2018-12-21T21:08:30.997Z,81.20
2018-12-21T21:10:58.476Z,81.20
2018-12-21T21:13:25.950Z,81.20
2018-12-21T21:15:53.410Z,81.60
2018-12-21T21:18:20.903Z,81.80
2018-12-21T21:20:48.394Z,81.70
2018-12-21T21:23:15.892Z,81.70
2018-12-21T21:25:43.405Z,81.90
2018-12-21T21:28:10.895Z,81.90
2018-12-21T21:30:38.451Z,82.00
2018-12-21T21:33:05.916Z,82.10
2018-12-21T21:35:33.413Z,82.20
2018-12-21T21:38:01.217Z,82.10
2018-12-21T21:40:28.713Z,82.20
2018-12-21T21:42:57.741Z,82.30
2018-12-21T21:45:25.627Z,82.20
2018-12-21T21:47:53.106Z,82.60
2018-12-21T21:50:20.584Z,82.70
2018-12-21T21:52:48.067Z,82.90
2018-12-21T21:55:15.661Z,83.10
2018-12-21T21:57:43.164Z,83.30
2018-12-21T22:00:11.472Z,83.30
2018-12-21T22:02:39.050Z,83.30
2018-12-21T22:05:06.613Z,83.40
2018-12-21T22:07:34.072Z,83.30
2018-12-21T22:10:01.564Z,83.50
2018-12-21T22:12:29.120Z,83.30
2018-12-21T22:14:56.580Z,83.20
2018-12-21T22:17:24.061Z,83.30
2018-12-21T22:19:51.546Z,83.40
2018-12-21T22:22:19.026Z,83.50
2018-12-21T22:24:46.509Z,83.60
2018-12-21T22:27:14.001Z,83.60
2018-12-21T22:29:41.489Z,83.80
2018-12-21T22:32:08.935Z,84.20
2018-12-21T22:34:36.405Z,84.60
2018-12-21T22:37:03.894Z,84.80
2018-12-21T22:39:31.343Z,84.70
2018-12-21T22:41:58.793Z,84.80
2018-12-21T22:44:26.284Z,84.80
2018-12-21T22:46:53.760Z,84.90
2018-12-21T22:49:21.254Z,84.90
2018-12-21T22:51:48.738Z,84.90
2018-12-21T22:54:16.232Z,84.80
2018-12-21T22:56:43.688Z,84.80
2018-12-21T22:59:11.182Z,85.00
2018-12-21T23:01:38.658Z,85.00
2018-12-21T23:04:06.153Z,85.00
2018-12-21T23:06:33.601Z,85.30
2018-12-21T23:09:01.112Z,86.20
2018-12-21T23:11:28.598Z,85.30
2018-12-21T23:13:56.044Z,85.50
2018-12-21T23:16:23.523Z,85.50
2018-12-21T23:18:50.967Z,85.70
2018-12-21T23:21:18.443Z,86.60
2018-12-21T23:23:45.918Z,86.00
2018-12-21T23:26:13.362Z,86.20
2018-12-21T23:28:40.837Z,86.70
2018-12-21T23:31:08.319Z,86.30
2018-12-21T23:33:35.776Z,87.20
2018-12-21T23:36:03.343Z,87.30
2018-12-21T23:38:30.830Z,87.30
2018-12-21T23:40:58.379Z,87.30
2018-12-21T23:43:25.839Z,87.40
2018-12-21T23:45:53.380Z,87.50
2018-12-21T23:48:20.891Z,87.50
2018-12-21T23:50:48.352Z,87.60
2018-12-21T23:53:15.819Z,87.50
2018-12-21T23:55:43.322Z,87.10
2018-12-21T23:58:13.925Z,87.40
